KTRM

Details ICAO KTRM (TRM)
Name Jacqueline Cochran Rgnl
Region United States
Timezone America/Los_Angeles (UTC-7.0)
Plans Departing 20
Arriving 52
Stats Elevation -115 ft / -35 m (AMSL)
Location 33.626391° -116.160792°
Runways 2
Magnetic Variation 11.424° E
Sunrise 2018-05-26 12:39:01 UTC / 2018-05-26 05:39:01 Local
Sunset 2018-05-27 02:47:18 UTC / 2018-05-26 19:47:18 Local
Advertisement - Login to hide

Runways

ID Width Length Bearing (true) Bearing (mag) Surface Threshold Offset Overrun Length
12 98 ft / 30 m 4,997 ft / 1,523 m 135.14° 123.72° Asphalt 0 ft / 0 m 0 ft / 0 m
17 151 ft / 46 m 8,525 ft / 2,598 m 180.02° 168.60° Asphalt 0 ft / 0 m 200 ft / 61 m
30 98 ft / 30 m 4,997 ft / 1,523 m 315.15° 303.73° Asphalt 0 ft / 0 m 0 ft / 0 m
35 151 ft / 46 m 8,525 ft / 2,598 m 0.02° 348.60° Asphalt 0 ft / 0 m 200 ft / 61 m

Map

Weather


0- 5 10 15 20 25 30 35+ Temperature / ° C

Clouds and Precipitation
Forecast for 2018-05-26 12:00 UTC. Updated 3 hours ago

Ground ~20,000 ft ~40,000 ft Winds

METAR

KTRM 261352Z AUTO 32011KT 10SM CLR 21/08 A2985 RMK AO2 SLP118 T02110078

TAF

TAF KTRM 261120Z 2612/2712 34018G28KT P6SM SKC FM261600 33012G20KT P6SM SKC FM270100 33018G28KT P6SM SKC FM270900 33011KT P6SM SKC

Frequencies

Recorded 118.32 MHz ASOS
Approach 135.27 MHz SOCAL APP/DEP
Unicom 123.00 MHz CTAF/UNICOM
Warning: Do not use this data for real-world aviation or navigation. No guarantee of current accuracy is given.